Terminal Aerodrome Forecast
Issued by NWS Jackson, KY

Home | Current Version | Previous Version | Text Only | Print | Product List | Glossary On
Versions: 1 2 3 4 5 6 7 8 9 10 11 12 13 14 15
000
FTUS43 KJKL 221100
TAFJKL
TAF
KJKL 221125Z 2212/2312 VRB03KT P6SM BKN015 BKN035
     FM221500 35003KT P6SM BKN025
     FM221700 34004KT P6SM SCT025 SCT050
     FM230300 VRB03KT P6SM FEW030=

USA.gov is the U.S. government's official web portal to all federal, state and local government web resources and services.